Terminal Aerodrome Forecast
Issued by NWS

Home | Current Version | Previous Version | Text Only | Print | Product List | Glossary On
Versions: 1 2 3 4 5 6 7 8 9 10 11 12 13 14 15 16 17 18 19 20 21 22 23 24 25
000
FTAK31 PANC 011146
TAFAIL
TAF
PAIL 011146Z 0112/0212 VRB03KT P6SM BKN120 BKN200
     FM012100 16011KT P6SM BKN100
     FM020600 VRB06KT P6SM BKN060=

USA.gov is the U.S. government's official web portal to all federal, state and local government web resources and services.